• Join FlightAware (Why Join?)
  • Login
  • US Flag 
10:10PM EDT


 

Airport Tracker/Info


-or-


 

Live Flight TrackerFlight Track Log ✈ DAL374 ✈ 24-Jan-2014 ✈ MSLP / SAL - KATL

Flight Track Log - Related Links

Times and Time Zones

All times are in EST time to prevent confusion due to time zone crossing. See the DAL374 flight status page for this flight to view local times or setup timezone preferences in your user account.

Time Position Orientation Groundspeed Altitude Reporting Facility
EST Latitude Longitude Course Direction KTS MPH feet Rate Location/Type
03:09PM 13.5650 -89.0636 356° North  Level FlightAware Approximate
03:10PM 13.6890 -89.0715 356° North  Level FlightAware Approximate
03:11PM 13.8131 -89.0795 356° North  Level FlightAware Approximate
03:12PM 13.9372 -89.0874 356° North  Level FlightAware Approximate
03:13PM 14.0592 -89.0952 356° North  Level FlightAware Approximate
03:14PM 14.1812 -89.1030 356° North  Level FlightAware Approximate
03:15PM 14.3032 -89.1108 356° North  Level FlightAware Approximate
03:16PM 14.4253 -89.1187 356° North  Level FlightAware Approximate
03:17PM 14.5473 -89.1265 356° North  Level FlightAware Approximate
03:18PM 14.6693 -89.1344 356° North  Level FlightAware Approximate
03:19PM 14.7914 -89.1423 356° North  Level FlightAware Approximate
03:20PM 14.9134 -89.1501 356° North  Level FlightAware Approximate
03:21PM 15.0354 -89.1580 356° North  Level FlightAware Approximate
03:22PM 15.1574 -89.1659 356° North  Level FlightAware Approximate
03:23PM 15.2794 -89.1738 356° North  Level FlightAware Approximate
03:24PM 15.4015 -89.1817 356° North  Level FlightAware Approximate
03:25PM 15.5235 -89.1896 356° North  Level FlightAware Approximate
03:26PM 15.6455 -89.1975 356° North  Level FlightAware Approximate
03:27PM 15.7675 -89.2066 356° North  Level FlightAware Approximate
03:28PM 15.8894 -89.2161 356° North  Level FlightAware Approximate
03:29PM 16.0113 -89.2256 356° North  Level FlightAware Approximate
03:30PM 16.1332 -89.2351 356° North  Level FlightAware Approximate
03:31PM 16.2551 -89.2447 356° North  Level FlightAware Approximate
03:32PM 16.3771 -89.2542 356° North  Level FlightAware Approximate
03:33PM 16.4990 -89.2638 356° North  Level FlightAware Approximate
03:34PM 16.6209 -89.2734 356° North  Level FlightAware Approximate
03:35PM 16.7428 -89.2830 356° North  Level FlightAware Approximate
03:36PM 16.8647 -89.2926 356° North  Level FlightAware Approximate
03:37PM 16.9867 -89.3022 356° North  Level FlightAware Approximate
03:38PM 17.1086 -89.3118 356° North  Level FlightAware Approximate
03:39PM 17.2305 -89.3214 356° North  Level FlightAware Approximate
03:40PM 17.3524 -89.3311 356° North  Level FlightAware Approximate
03:41PM 17.4743 -89.3408 356° North  Level FlightAware Approximate
03:42PM 17.5962 -89.3505 356° North  Level FlightAware Approximate
03:43PM 17.7181 -89.3602 356° North  Level FlightAware Approximate
03:44PM 17.8400 -89.3697 356° North  Level FlightAware Approximate
03:45PM 17.9620 -89.3791 356° North  Level FlightAware Approximate
03:46PM 18.0839 -89.3884 356° North  Level FlightAware Approximate
03:47PM 18.2059 -89.3978 356° North  Level FlightAware Approximate
03:48PM 18.3278 -89.4071 356° North  Level FlightAware Approximate
03:49PM 18.4497 -89.4165 356° North  Level FlightAware Approximate
03:50PM 18.5717 -89.4259 356° North  Level FlightAware Approximate
03:51PM 18.6936 -89.4353 356° North  Level FlightAware Approximate
03:52PM 18.8156 -89.4448 356° North  Level FlightAware Approximate
03:53PM 18.9375 -89.4542 356° North  Level FlightAware Approximate
03:54PM 19.0594 -89.4637 356° North  Level FlightAware Approximate
03:55PM 19.1814 -89.4731 356° North  Level FlightAware Approximate
03:56PM 19.3033 -89.4826 356° North  Level FlightAware Approximate
03:57PM 19.4252 -89.4921 356° North  Level FlightAware Approximate
03:58PM 19.5471 -89.5016 356° North  Level FlightAware Approximate
03:59PM 19.6691 -89.5111 356° North  Level FlightAware Approximate
04:00PM 19.7910 -89.5207 356° North  Level FlightAware Approximate
04:01PM 19.9129 -89.5302 356° North  Level FlightAware Approximate
04:02PM 20.0349 -89.5398 356° North  Level FlightAware Approximate
04:03PM 20.1568 -89.5494 356° North  Level FlightAware Approximate
04:04PM 20.2787 -89.5590 356° North  Level FlightAware Approximate
04:05PM 20.4007 -89.5686 356° North  Level FlightAware Approximate
04:06PM 20.5226 -89.5782 356° North  Level FlightAware Approximate
04:07PM 20.6445 -89.5879 356° North  Level FlightAware Approximate
04:08PM 20.7664 -89.5975 356° North  Level FlightAware Approximate
04:09PM 20.8884 -89.6072 356° North  Level FlightAware Approximate
04:10PM 21.0103 -89.6169 356° North  Level FlightAware Approximate
04:11PM 21.1322 -89.6266 356° North  Level FlightAware Approximate
04:12PM 21.2542 -89.6363 356° North  Level FlightAware Approximate
04:13PM 21.3761 -89.6461 356° North  Level FlightAware Approximate
04:14PM 21.4980 -89.6558 356° North  Level FlightAware Approximate
04:15PM 21.6199 -89.6656 356° North  Level FlightAware Approximate
04:16PM 21.7418 -89.6757 356° North  Level FlightAware Approximate
04:17PM 21.8637 -89.6858 356° North  Level FlightAware Approximate
04:18PM 21.9856 -89.6960 356° North  Level FlightAware Approximate
04:19PM 22.1075 -89.7061 356° North  Level FlightAware Approximate
04:20PM 22.2294 -89.7163 356° North  Level FlightAware Approximate
04:21PM 22.3516 -89.7212 358° North  Level FlightAware Approximate
04:22PM 22.4738 -89.7259 358° North  Level FlightAware Approximate
04:23PM 22.5959 -89.7306 358° North  Level FlightAware Approximate
04:24PM 22.7155 -89.7359 357° North  Level FlightAware Approximate
04:25PM 22.8350 -89.7424 357° North  Level FlightAware Approximate
04:26PM 22.9545 -89.7488 357° North  Level FlightAware Approximate
04:27PM 23.0740 -89.7552 357° North  Level FlightAware Approximate
04:28PM 23.1935 -89.7617 357° North  Level FlightAware Approximate
04:29PM 23.3130 -89.7681 357° North  Level FlightAware Approximate
04:30PM 23.4326 -89.7746 357° North  Level FlightAware Approximate
04:31PM 23.5521 -89.7811 357° North  Level FlightAware Approximate
04:32PM 23.6716 -89.7876 357° North  Level FlightAware Approximate
04:33PM 23.7911 -89.7941 357° North  Level FlightAware Approximate
04:34PM 23.9106 -89.8006 357° North  Level FlightAware Approximate
04:35PM 24.0301 -89.8074 357° North  Level FlightAware Approximate
04:36PM 24.1496 -89.8142 357° North  Level FlightAware Approximate
04:37PM 24.2691 -89.8211 357° North  Level FlightAware Approximate
04:38PM 24.3886 -89.8279 357° North  Level FlightAware Approximate
04:39PM 24.5081 -89.8351 356° North  Level FlightAware Approximate
04:40PM 24.6275 -89.8436 356° North  Level FlightAware Approximate
04:41PM 24.7470 -89.8515 357° North  Level FlightAware Approximate
04:42PM 24.8665 -89.8576 357° North  Level FlightAware Approximate
04:43PM 24.9860 -89.8636 357° North  Level FlightAware Approximate
04:44PM 25.1056 -89.8696 357° North  Level FlightAware Approximate
04:45PM 25.2251 -89.8757 357° North  Level FlightAware Approximate
04:46PM 25.3446 -89.8818 357° North  Level FlightAware Approximate
04:47PM 25.4641 -89.8878 357° North  Level FlightAware Approximate
04:48PM 25.5837 -89.8940 357° North  Level FlightAware Approximate
04:49PM 25.7032 -89.9001 357° North  Level FlightAware Approximate
04:50PM 25.8227 -89.9062 357° North  Level FlightAware Approximate
04:51PM 25.9423 -89.9123 357° North  Level FlightAware Approximate
04:52PM 26.0618 -89.9185 357° North  Level FlightAware Approximate
04:53PM 26.1813 -89.9246 357° North  Level FlightAware Approximate
04:54PM 26.3009 -89.9308 357° North  Level FlightAware Approximate
04:55PM 26.4204 -89.9376 357° North  Level FlightAware Approximate
04:55PM 26.7458 -89.9653 357° North 438 504 36,000  Level Houston Center
04:56PM 26.5399 -89.9448 357° North  Level FlightAware Approximate
04:56PM 26.8675 -89.9747 356° North 438 504 36,000  Level Houston Center
04:57PM 26.6594 -89.9521 357° North  Level FlightAware Approximate
04:57PM 27.0147 -89.9486 North 439 505 35,200  Level Houston Center
04:58PM 26.7789 -89.9593 357° North  Level FlightAware Approximate
04:58PM 27.1358 -89.8867 24° Northeast 450 518 35,000  Level Houston Center
04:59PM 26.8983 -89.9666 357° North  Level FlightAware Approximate
04:59PM 27.2572 -89.8306 22° Northeast 461 531 35,000  Level Houston Center
05:00PM 27.0178 -89.9739 357° North  Level FlightAware Approximate
05:00PM 27.3789 -89.7742 22° Northeast 466 536 35,000  Level Houston Center
05:01PM 27.5011 -89.7161 23° Northeast 469 540 35,000  Level Houston Center
05:02PM 27.6236 -89.6611 22° Northeast 470 541 35,000  Level Houston Center
05:03PM 27.7697 -89.5967 21° North 471 542 35,000  Level Houston Center
05:04PM 27.8917 -89.5428 21° North 471 542 35,000 -60 Level Houston Center
05:06PM 28.0144 -89.4878 22° Northeast 471 542 34,900  Descending Houston Center
05:07PM 28.1358 -89.4333 22° Northeast 471 542 35,000  Climbing Houston Center
05:08PM 28.2572 -89.3775 22° Northeast 471 542 35,000  Level Houston Center
05:09PM 28.4042 -89.3125 21° North 471 542 35,000  Level Houston Center
05:10PM 28.5264 -89.2575 22° Northeast 471 542 35,000  Level Houston Center
05:11PM 28.6469 -89.2017 22° Northeast 471 542 35,000 -60 Level Houston Center
05:12PM 28.7672 -89.1467 22° Northeast 469 540 34,900 -60 Descending Houston Center
05:13PM 28.8883 -89.0919 22° Northeast 469 540 34,900  Level Houston Center
05:14PM 29.0339 -89.0258 22° Northeast 469 540 34,900  Level Houston Center
05:15PM 29.1569 -88.9703 22° Northeast 472 543 35,000  Climbing Houston Center
05:16PM 29.2836 -88.9117 22° Northeast 484 557 35,000  Level Houston Center
05:17PM 29.4089 -88.8539 22° Northeast 485 558 35,000  Level Houston Center
05:18PM 29.5328 -88.7981 21° North 484 557 35,000 -60 Level Houston Center
05:19PM 29.6806 -88.7292 22° Northeast 480 552 34,900  Descending Houston Center
05:20PM 29.8033 -88.6717 22° Northeast 479 551 35,000  Climbing Houston Center
05:21PM 29.9194 -88.6183 22° Northeast 479 551 35,000  Level Houston Center
05:22PM 30.0425 -88.5603 22° Northeast 479 551 35,000  Level Houston Center
05:23PM 30.1908 -88.4911 22° Northeast 479 551 35,000  Level Houston Center
05:24PM 30.3142 -88.4347 22° Northeast 479 551 35,000  Level Houston Center
05:25PM 30.4389 -88.3764 22° Northeast 479 551 35,000  Level Houston Center
05:26PM 30.5642 -88.3167 22° Northeast 482 555 35,000  Level Houston Center
05:27PM 30.6889 -88.2575 22° Northeast 483 556 35,000  Level Houston Center
05:28PM 30.8189 -88.1958 22° Northeast 484 557 35,000  Level Houston Center
05:29PM 30.9681 -88.1236 23° Northeast 485 558 35,000  Level Houston Center
05:30PM 31.0933 -88.0650 22° Northeast 485 558 35,000 -60 Level Houston Center
05:31PM 31.2169 -88.0061 22° Northeast 483 556 34,900  Descending Houston Center
05:32PM 31.3517 -87.9383 23° Northeast 483 556 35,000  Climbing Houston Center
05:33PM 31.4569 -87.8194 44° Northeast 539 620 35,000  Level Houston Center
05:35PM 31.5475 -87.6742 54° Northeast 548 631 35,000  Level Houston Center
05:36PM 31.6369 -87.5303 54° Northeast 548 631 35,000 -360 Level Houston Center
05:37PM 31.7400 -87.3633 54° Northeast 548 631 34,300 -840 Descending Houston Center
05:38PM 31.8342 -87.2125 54° Northeast 548 631 33,300 -960 Descending Houston Center
05:39PM 31.9247 -87.0661 54° Northeast 551 634 32,300 -960 Descending Houston Center
05:40PM 32.0144 -86.9206 54° Northeast 551 634 31,400 -960 Descending Houston Center
05:41PM 32.1050 -86.7758 54° Northeast 550 633 30,400 -960 Descending Houston Center
05:42PM 32.2100 -86.6236 51° Northeast 557 641 29,400 -720 Descending Atlanta Center
05:43PM 32.2986 -86.4764 55° Northeast 557 641 29,000 -660 Descending Atlanta Center
05:44PM 32.3789 -86.3211 58° Northeast 557 641 28,100 -960 Descending Atlanta Center
05:45PM 32.4733 -86.1758 52° Northeast 550 633 27,100 -600 Descending Atlanta Center
05:46PM 32.5783 -86.0108 53° Northeast 556 640 27,000 -60 Descending Atlanta Center
05:47PM 32.6703 -85.8625 54° Northeast 562 647 27,000  Level Atlanta Center
05:48PM 32.7536 -85.7331 53° Northeast 557 641 27,000 -1,320 Level Atlanta Center
05:49PM 32.8433 -85.5842 54° Northeast 557 641 24,400 -2,580 Descending Atlanta Center
05:50PM 32.9283 -85.4469 54° Northeast 540 621 21,900 -2,460 Descending Atlanta Center
05:51PM 33.0069 -85.3144 55° Northeast 508 585 19,500 -2,400 Descending Atlanta Center
05:52PM 33.0897 -85.1867 52° Northeast 472 543 17,100 -2,220 Descending Atlanta Center
05:53PM 33.1533 -85.0833 54° Northeast 435 501 15,100 -1,680 Descending Atlanta Center
05:54PM 33.2231 -84.9800 51° Northeast 414 476 13,800 -1,560 Descending Atlanta Center
05:55PM 33.2967 -84.8839 47° Northeast 395 455 12,000 -900 Descending Atlanta Center
05:56PM 33.3703 -84.7875 48° Northeast 389 448 12,000  Level Atlanta Center
05:57PM 33.4481 -84.6936 45° Northeast 384 442 12,000  Level Atlanta Center
05:58PM 33.5194 -84.6069 45° Northeast 384 442 12,000 -240 Level Atlanta Center
05:59PM 33.5367 -84.5075 78° East 302 348 11,600 -840 Descending Atlanta Center
06:00PM 33.5369 -84.4178 90° East 281 323 10,400 -1,440 Descending Atlanta Center
06:01PM 33.5333 -84.3167 92° East 241 277 8,800 -1,800 Descending Atlanta TRACON
06:02PM 33.5333 -84.2500 90° East 217 250 7,100 -1,920 Descending Atlanta TRACON
06:03PM 33.5667 -84.2167 40° Northeast 194 223 5,200 -1,740 Descending Atlanta TRACON
06:04PM 33.6000 -84.2667 309° West 182 209 3,700 -1,260 Descending Atlanta TRACON
06:05PM 33.6167 -84.3167 292° West 179 206 2,700 -960 Descending Atlanta TRACON
06:06PM 33.6167 -84.3667 270° West 147 169 1,900 -840 Descending Atlanta TRACON
06:07PM 33.6167 -84.4167 270° West 125 144 1,200 -720 Descending Atlanta TRACON